createdAt,value
2018-07-09T00:01:59.527Z,4.30
2018-07-09T00:04:28.225Z,4.67
2018-07-09T00:06:56.891Z,4.70
2018-07-09T00:09:25.771Z,4.77
2018-07-09T00:11:54.471Z,4.63
2018-07-09T00:14:23.141Z,4.30
2018-07-09T00:16:51.832Z,4.17
2018-07-09T00:19:20.563Z,4.17
2018-07-09T00:21:49.228Z,3.57
2018-07-09T00:24:17.950Z,3.70
2018-07-09T00:26:46.700Z,4.07
2018-07-09T00:29:15.577Z,3.97
2018-07-09T00:31:43.937Z,4.03
2018-07-09T00:34:12.685Z,3.77
2018-07-09T00:36:41.393Z,3.63
2018-07-09T00:39:10.099Z,4.30
2018-07-09T00:41:38.860Z,4.03
2018-07-09T00:44:07.556Z,4.20
2018-07-09T00:46:36.209Z,4.53
2018-07-09T00:49:05.770Z,3.83
2018-07-09T00:51:34.465Z,3.67
2018-07-09T00:54:03.159Z,3.70
2018-07-09T00:56:31.881Z,3.70
2018-07-09T00:59:01.168Z,4.20
2018-07-09T01:01:29.992Z,4.10
2018-07-09T01:03:58.677Z,4.03
2018-07-09T01:06:28.121Z,4.47
2018-07-09T01:08:56.876Z,4.40
2018-07-09T01:11:36.674Z,3.67
2018-07-09T01:14:05.326Z,4.93
2018-07-09T01:16:34.098Z,5.17
2018-07-09T01:19:02.398Z,4.90
2018-07-09T01:21:31.101Z,4.40
2018-07-09T01:23:59.853Z,3.97
2018-07-09T01:26:28.630Z,4.80
2018-07-09T01:28:57.425Z,3.93
2018-07-09T01:31:26.126Z,4.13
2018-07-09T01:33:54.886Z,4.30
2018-07-09T01:36:23.541Z,4.23
2018-07-09T01:38:52.256Z,4.27
2018-07-09T01:41:20.908Z,4.40
2018-07-09T01:43:49.592Z,5.10
2018-07-09T01:46:18.266Z,5.03
2018-07-09T01:48:47.001Z,4.63
2018-07-09T01:51:15.682Z,4.03
2018-07-09T01:53:44.412Z,4.70
2018-07-09T01:56:13.261Z,4.27
2018-07-09T01:58:41.984Z,4.70
2018-07-09T02:01:10.752Z,4.67
2018-07-09T02:03:39.690Z,4.40
2018-07-09T02:06:08.451Z,4.27
2018-07-09T02:08:37.138Z,4.77
2018-07-09T02:11:05.987Z,5.37
2018-07-09T02:13:34.719Z,5.57
2018-07-09T02:16:03.388Z,5.03
2018-07-09T02:18:32.067Z,5.07
2018-07-09T02:21:00.727Z,5.87
2018-07-09T02:23:29.415Z,5.13
2018-07-09T02:25:58.436Z,4.73
2018-07-09T02:28:27.211Z,4.80
2018-07-09T02:30:55.886Z,5.33
2018-07-09T02:33:24.567Z,5.10
2018-07-09T02:35:53.271Z,4.67
2018-07-09T02:38:21.988Z,5.00
2018-07-09T02:40:50.673Z,5.47
2018-07-09T02:43:19.813Z,5.50
2018-07-09T02:45:48.517Z,5.47
2018-07-09T02:48:17.233Z,5.50
2018-07-09T02:50:45.972Z,6.43
2018-07-09T02:53:14.663Z,6.70
2018-07-09T02:55:43.337Z,6.50
2018-07-09T02:58:11.987Z,6.90
2018-07-09T03:00:40.809Z,7.93
2018-07-09T03:03:09.474Z,8.90
2018-07-09T03:05:38.355Z,8.90
2018-07-09T03:08:07.077Z,7.93
2018-07-09T03:10:35.813Z,8.13
2018-07-09T03:13:04.554Z,7.53
2018-07-09T03:15:33.259Z,6.50
2018-07-09T03:18:01.937Z,8.27
2018-07-09T03:20:30.705Z,8.23
2018-07-09T03:22:59.419Z,7.97
2018-07-09T03:25:28.101Z,7.97
2018-07-09T03:27:56.882Z,8.50
2018-07-09T03:30:25.591Z,8.17
2018-07-09T03:32:54.294Z,8.30
2018-07-09T03:35:22.999Z,8.23
2018-07-09T03:37:51.691Z,8.10
2018-07-09T03:40:20.382Z,8.50
2018-07-09T03:42:49.078Z,8.53
2018-07-09T03:45:17.779Z,7.87
2018-07-09T03:47:46.501Z,8.33
2018-07-09T03:50:15.318Z,7.70
2018-07-09T03:52:43.977Z,7.13
2018-07-09T03:55:12.649Z,8.10
2018-07-09T03:57:41.353Z,7.90
2018-07-09T04:00:10.042Z,8.20
2018-07-09T04:02:38.383Z,8.10
2018-07-09T04:05:07.120Z,8.40
2018-07-09T04:07:35.836Z,8.23
2018-07-09T04:10:04.220Z,7.23
2018-07-09T04:12:32.935Z,8.17
2018-07-09T04:15:01.678Z,7.67
2018-07-09T04:17:30.378Z,7.90
2018-07-09T04:19:59.239Z,8.10
2018-07-09T04:22:27.958Z,8.30
2018-07-09T04:24:56.687Z,8.27
2018-07-09T04:27:25.501Z,8.87
2018-07-09T04:29:54.225Z,9.00
2018-07-09T04:32:22.529Z,8.60
2018-07-09T04:34:51.252Z,9.63
2018-07-09T04:37:19.964Z,9.43
2018-07-09T04:39:48.679Z,9.20
2018-07-09T04:42:17.377Z,9.63
2018-07-09T04:44:46.101Z,9.57
2018-07-09T04:47:14.781Z,9.03
2018-07-09T04:49:43.545Z,9.17
2018-07-09T04:52:12.226Z,9.73
2018-07-09T04:54:40.907Z,10.10
2018-07-09T04:57:09.613Z,9.23
2018-07-09T04:59:38.297Z,9.73
2018-07-09T05:02:07.169Z,8.20
2018-07-09T05:04:35.849Z,7.23
2018-07-09T05:07:04.802Z,8.17
2018-07-09T05:09:33.513Z,9.43
2018-07-09T05:12:02.199Z,8.30
2018-07-09T05:14:30.908Z,8.97
2018-07-09T05:16:59.573Z,8.87
2018-07-09T05:19:28.248Z,8.77
2018-07-09T05:21:56.952Z,9.23
2018-07-09T05:24:25.647Z,8.93
2018-07-09T05:26:54.364Z,8.67
2018-07-09T05:29:23.329Z,8.87
2018-07-09T05:31:52.018Z,9.63
2018-07-09T05:34:20.801Z,9.07
2018-07-09T05:36:49.522Z,9.00
2018-07-09T05:39:18.313Z,8.40
2018-07-09T05:41:47.293Z,8.20
2018-07-09T05:47:14.894Z,8.67
2018-07-09T05:49:43.623Z,8.63
2018-07-09T05:52:12.344Z,8.27
2018-07-09T05:54:41.084Z,8.73
2018-07-09T05:57:09.826Z,8.70
2018-07-09T05:59:38.458Z,8.67
2018-07-09T06:02:07.236Z,8.23
2018-07-09T06:04:35.959Z,8.30
2018-07-09T06:07:04.660Z,8.80
2018-07-09T06:09:33.373Z,8.80
2018-07-09T06:12:02.073Z,8.03
2018-07-09T06:14:30.393Z,7.40
2018-07-09T06:16:59.176Z,8.00
2018-07-09T06:19:27.995Z,8.60
2018-07-09T06:21:56.768Z,8.17
2018-07-09T06:24:25.580Z,7.77
2018-07-09T06:26:53.884Z,7.50
2018-07-09T06:29:22.586Z,6.80
2018-07-09T06:31:51.316Z,7.20
2018-07-09T06:34:20.205Z,6.93
2018-07-09T06:36:49.347Z,6.70
2018-07-09T06:39:18.035Z,6.80
2018-07-09T06:41:46.781Z,7.17
2018-07-09T06:44:15.497Z,6.80
2018-07-09T06:46:44.190Z,6.90
2018-07-09T06:49:12.938Z,6.97
2018-07-09T06:51:41.651Z,6.20
2018-07-09T06:54:10.414Z,6.47
2018-07-09T06:56:39.136Z,6.80
2018-07-09T06:59:07.806Z,6.80
2018-07-09T07:01:36.921Z,6.33
2018-07-09T07:04:05.901Z,5.83
2018-07-09T07:06:34.625Z,6.40
2018-07-09T07:09:03.975Z,6.73
2018-07-09T07:11:32.699Z,6.90
2018-07-09T07:14:01.452Z,7.67
2018-07-09T07:16:30.127Z,6.47
2018-07-09T07:18:58.812Z,5.10
2018-07-09T07:21:27.542Z,5.50
2018-07-09T07:23:56.254Z,5.43
2018-07-09T07:26:25.158Z,4.97
2018-07-09T07:28:54.020Z,5.83
2018-07-09T07:31:22.794Z,5.50
2018-07-09T07:33:51.561Z,5.87
2018-07-09T07:36:20.314Z,6.40
2018-07-09T07:38:49.052Z,5.10
2018-07-09T07:41:17.861Z,5.07
2018-07-09T07:43:46.544Z,5.83
2018-07-09T07:46:15.262Z,5.50
2018-07-09T07:48:44.312Z,5.60
2018-07-09T07:51:13.071Z,6.40
2018-07-09T07:53:41.754Z,6.23
2018-07-09T07:56:10.582Z,5.20
2018-07-09T07:58:39.301Z,4.63
2018-07-09T08:01:08.085Z,5.70
2018-07-09T08:03:36.776Z,4.97
2018-07-09T08:06:07.045Z,5.07
2018-07-09T08:08:35.784Z,4.60
2018-07-09T08:11:11.068Z,5.20
2018-07-09T08:13:32.928Z,4.47
2018-07-09T08:16:01.575Z,4.03
2018-07-09T08:18:30.286Z,5.03
2018-07-09T08:20:59.164Z,5.93
2018-07-09T08:23:27.945Z,5.17
2018-07-09T08:25:56.693Z,5.30
2018-07-09T08:28:26.281Z,5.57
2018-07-09T08:30:55.036Z,5.17
2018-07-09T08:33:23.779Z,4.60
2018-07-09T08:35:52.531Z,4.40
2018-07-09T08:38:25.310Z,4.17
2018-07-09T08:40:53.977Z,4.60
2018-07-09T08:43:22.680Z,4.87
2018-07-09T08:45:51.383Z,4.83
2018-07-09T08:48:21.113Z,4.70
2018-07-09T08:50:49.980Z,3.90
2018-07-09T08:53:18.652Z,5.73
2018-07-09T08:55:47.321Z,6.17
2018-07-09T08:58:15.988Z,5.80
2018-07-09T09:00:44.722Z,5.80
2018-07-09T09:03:13.814Z,6.00
2018-07-09T09:05:42.584Z,5.67
2018-07-09T09:08:11.317Z,6.00
2018-07-09T09:10:40.016Z,6.10
2018-07-09T09:13:09.275Z,6.33
2018-07-09T09:15:37.997Z,6.13
2018-07-09T09:18:06.739Z,6.20
2018-07-09T09:20:35.684Z,6.23
2018-07-09T09:23:04.356Z,6.40
2018-07-09T09:25:33.124Z,6.07
2018-07-09T09:28:01.840Z,6.07
2018-07-09T09:30:30.597Z,6.43
2018-07-09T09:33:00.163Z,6.57
2018-07-09T09:35:28.836Z,6.13
2018-07-09T09:37:57.569Z,6.10
2018-07-09T09:40:26.539Z,5.33
2018-07-09T09:42:55.256Z,5.37
2018-07-09T09:45:23.947Z,5.70
2018-07-09T09:47:52.252Z,5.73
2018-07-09T09:50:20.981Z,5.53
2018-07-09T09:52:49.289Z,6.37
2018-07-09T09:55:18.245Z,6.13
2018-07-09T09:57:46.967Z,6.27
2018-07-09T10:00:16.934Z,5.80
2018-07-09T10:02:45.644Z,5.60
2018-07-09T10:05:14.397Z,5.67
2018-07-09T10:07:43.136Z,6.43
2018-07-09T10:10:11.805Z,5.93
2018-07-09T10:12:40.523Z,6.30
2018-07-09T10:15:09.225Z,6.13
2018-07-09T10:17:37.957Z,6.53
2018-07-09T10:20:06.710Z,6.27
2018-07-09T10:22:35.470Z,6.10
2018-07-09T10:25:04.281Z,6.60
2018-07-09T10:27:32.965Z,7.23
2018-07-09T10:30:01.698Z,6.90
2018-07-09T10:32:30.428Z,6.73
2018-07-09T10:35:05.389Z,6.70
2018-07-09T10:37:34.295Z,7.27
2018-07-09T10:40:03.219Z,7.63
2018-07-09T10:42:32.261Z,7.30
2018-07-09T10:45:02.587Z,8.10
2018-07-09T10:47:31.893Z,7.20
2018-07-09T10:50:01.020Z,7.30
2018-07-09T10:52:29.709Z,7.57
2018-07-09T10:54:58.427Z,7.43
2018-07-09T10:57:27.187Z,7.47
2018-07-09T10:59:59.620Z,7.30
2018-07-09T11:02:28.645Z,8.20
2018-07-09T11:04:57.403Z,7.43
2018-07-09T11:07:26.164Z,6.80
2018-07-09T11:09:54.940Z,6.87
2018-07-09T11:12:23.832Z,7.03
2018-07-09T11:14:52.531Z,7.40
2018-07-09T11:17:21.336Z,6.70
2018-07-09T11:19:50.094Z,6.97
2018-07-09T11:22:18.823Z,6.17
2018-07-09T11:24:47.621Z,6.83
2018-07-09T11:27:16.376Z,6.30
2018-07-09T11:29:45.112Z,6.50
2018-07-09T11:32:14.000Z,6.40
2018-07-09T11:34:42.720Z,6.70
2018-07-09T11:37:11.788Z,6.22
2018-07-09T11:39:40.472Z,5.00
2018-07-09T11:42:09.352Z,5.50
2018-07-09T11:44:38.077Z,5.50
2018-07-09T11:47:06.956Z,6.10
2018-07-09T11:49:35.677Z,5.70
2018-07-09T11:52:04.532Z,5.70
2018-07-09T11:54:33.214Z,5.80
2018-07-09T11:57:01.970Z,6.40
2018-07-09T11:59:30.858Z,5.73
2018-07-09T12:01:59.824Z,5.65
2018-07-09T12:04:28.459Z,5.83
2018-07-09T12:06:57.243Z,5.17
2018-07-09T12:09:26.110Z,6.10
2018-07-09T12:11:54.906Z,5.30
2018-07-09T12:14:23.620Z,6.00
2018-07-09T12:16:52.360Z,5.80
2018-07-09T12:19:21.406Z,5.17
2018-07-09T12:21:50.104Z,5.20
2018-07-09T12:24:19.235Z,5.37
2018-07-09T12:26:48.425Z,5.40
2018-07-09T12:29:16.826Z,5.28
2018-07-09T12:31:45.762Z,5.50
2018-07-09T12:34:14.649Z,3.90
2018-07-09T12:36:43.502Z,4.28
2018-07-09T12:39:12.440Z,3.72
2018-07-09T12:41:41.316Z,3.80
2018-07-09T12:44:10.399Z,3.72
2018-07-09T12:46:39.353Z,3.77
2018-07-09T12:49:08.436Z,3.77
2018-07-09T12:51:37.370Z,3.62
2018-07-09T12:54:06.346Z,3.90
2018-07-09T12:56:35.864Z,3.37
2018-07-09T12:59:04.960Z,3.60
2018-07-09T13:01:34.369Z,4.37
2018-07-09T13:04:03.280Z,4.33
2018-07-09T13:06:32.171Z,4.50
2018-07-09T13:09:01.053Z,5.05
2018-07-09T13:11:29.888Z,4.90
2018-07-09T13:13:58.824Z,5.10
2018-07-09T13:16:27.807Z,4.42
2018-07-09T13:18:56.371Z,3.55
2018-07-09T13:21:24.829Z,3.92
2018-07-09T13:23:53.384Z,3.58
2018-07-09T13:26:22.245Z,3.80
2018-07-09T13:28:52.255Z,3.65
2018-07-09T13:31:21.366Z,3.90
2018-07-09T13:33:50.363Z,2.30
2018-07-09T13:36:19.560Z,2.40
2018-07-09T13:38:48.510Z,2.20
2018-07-09T13:41:17.482Z,2.50
2018-07-09T13:43:46.373Z,2.27
2018-07-09T13:46:14.854Z,2.27
2018-07-09T13:48:43.759Z,2.37
2018-07-09T13:51:12.624Z,2.30
2018-07-09T13:53:41.656Z,1.98
2018-07-09T13:56:10.549Z,2.70
2018-07-09T13:58:39.746Z,2.50
2018-07-09T14:01:08.704Z,2.50
2018-07-09T14:03:37.605Z,2.25
2018-07-09T14:06:06.390Z,2.15
2018-07-09T14:08:35.234Z,2.60
2018-07-09T14:11:04.195Z,2.67
2018-07-09T14:13:33.089Z,2.45
2018-07-09T14:16:02.026Z,2.22
2018-07-09T14:18:30.910Z,2.50
2018-07-09T14:20:59.873Z,3.42
2018-07-09T14:23:29.529Z,2.22
2018-07-09T14:25:58.530Z,1.77
2018-07-09T14:28:26.994Z,2.50
2018-07-09T14:30:56.748Z,2.20
2018-07-09T14:33:26.319Z,2.20
2018-07-09T14:35:54.772Z,2.00
2018-07-09T14:38:26.278Z,2.20
2018-07-09T14:40:57.778Z,2.60
2018-07-09T14:43:26.719Z,2.55
2018-07-09T14:45:55.609Z,2.77
2018-07-09T14:48:26.773Z,2.40
2018-07-09T14:50:55.741Z,2.52
2018-07-09T14:53:25.698Z,3.02
2018-07-09T14:55:54.597Z,2.52
2018-07-09T14:58:24.160Z,3.05
2018-07-09T15:00:53.565Z,2.75
2018-07-09T15:03:22.163Z,2.40
2018-07-09T15:05:51.115Z,2.72
2018-07-09T15:08:21.081Z,2.80
2018-07-09T15:10:51.269Z,3.00
2018-07-09T15:13:21.171Z,2.12
2018-07-09T15:15:50.158Z,2.00
2018-07-09T15:18:19.005Z,2.10
2018-07-09T15:20:50.755Z,2.25
2018-07-09T15:23:19.850Z,1.90
2018-07-09T15:25:48.719Z,2.02
2018-07-09T15:28:17.681Z,1.90
2018-07-09T15:30:47.216Z,2.02
2018-07-09T15:33:16.128Z,2.10
2018-07-09T15:35:44.738Z,1.80
2018-07-09T15:38:14.670Z,2.08
2018-07-09T15:40:43.722Z,2.42
2018-07-09T15:43:13.209Z,2.85
2018-07-09T15:45:41.643Z,2.57
2018-07-09T15:48:10.566Z,2.67
2018-07-09T15:50:39.433Z,2.70
2018-07-09T15:53:08.444Z,2.00
2018-07-09T15:55:37.799Z,2.35
2018-07-09T15:58:06.916Z,2.27
2018-07-09T16:00:36.107Z,2.17
2018-07-09T16:03:05.019Z,2.30
2018-07-09T16:05:33.933Z,2.10
2018-07-09T16:08:02.851Z,1.80
2018-07-09T16:10:31.761Z,1.82
2018-07-09T16:13:00.656Z,1.73
2018-07-09T16:15:29.528Z,1.83
2018-07-09T16:17:58.049Z,1.70
2018-07-09T16:20:26.964Z,1.80
2018-07-09T16:22:55.846Z,1.90
2018-07-09T16:25:24.801Z,1.80
2018-07-09T16:27:53.622Z,1.83
2018-07-09T16:30:22.617Z,1.67
2018-07-09T16:32:51.523Z,1.80
2018-07-09T16:35:20.478Z,1.63
2018-07-09T16:37:49.443Z,1.87
2018-07-09T16:40:18.305Z,2.00
2018-07-09T16:42:47.192Z,1.50
2018-07-09T16:45:16.054Z,1.50
2018-07-09T16:47:44.963Z,1.60
2018-07-09T16:50:13.826Z,1.97
2018-07-09T16:52:42.766Z,1.87
2018-07-09T16:55:11.674Z,1.90
2018-07-09T16:57:40.524Z,2.30
2018-07-09T17:00:09.375Z,2.17
2018-07-09T17:02:38.240Z,1.83
2018-07-09T17:05:07.402Z,2.23
2018-07-09T17:07:36.323Z,2.17
2018-07-09T17:10:05.229Z,2.10
2018-07-09T17:12:34.138Z,2.10
2018-07-09T17:15:03.015Z,2.47
2018-07-09T17:17:31.911Z,2.00
2018-07-09T17:20:00.858Z,2.23
2018-07-09T17:22:30.251Z,2.00
2018-07-09T17:24:59.101Z,2.30
2018-07-09T17:27:28.028Z,2.30
2018-07-09T17:29:56.876Z,2.77
2018-07-09T17:32:26.002Z,2.40
2018-07-09T17:34:55.198Z,2.30
2018-07-09T17:40:07.732Z,2.43
2018-07-09T17:42:36.885Z,2.50
2018-07-09T17:45:06.035Z,2.60
2018-07-09T17:47:34.552Z,2.43
2018-07-09T17:50:03.860Z,2.50
2018-07-09T17:52:32.721Z,2.80
2018-07-09T17:55:01.547Z,3.10
2018-07-09T17:57:30.410Z,2.93
2018-07-09T17:59:59.293Z,2.87
2018-07-09T18:02:28.199Z,3.20
2018-07-09T18:04:57.081Z,3.33
2018-07-09T18:07:26.058Z,3.87
2018-07-09T18:09:54.901Z,3.30
2018-07-09T18:12:24.393Z,3.40
2018-07-09T18:14:53.302Z,3.10
2018-07-09T18:17:22.233Z,2.63
2018-07-09T18:19:50.661Z,2.90
2018-07-09T18:22:19.641Z,2.27
2018-07-09T18:24:48.533Z,2.03
2018-07-09T18:27:17.441Z,1.90
2018-07-09T18:29:46.341Z,2.67
2018-07-09T18:32:15.713Z,2.20
2018-07-09T18:34:44.905Z,2.17
2018-07-09T18:37:13.792Z,2.43
2018-07-09T18:39:43.616Z,2.43
2018-07-09T18:42:13.842Z,2.43
2018-07-09T18:44:43.283Z,2.40
2018-07-09T18:47:12.660Z,3.03
2018-07-09T18:49:41.718Z,2.77
2018-07-09T18:52:11.352Z,2.70
2018-07-09T18:54:40.357Z,2.67
2018-07-09T18:57:09.280Z,2.53
2018-07-09T18:59:38.199Z,2.50
2018-07-09T19:02:07.281Z,2.50
2018-07-09T19:04:36.159Z,2.97
2018-07-09T19:07:07.209Z,2.57
2018-07-09T19:09:36.694Z,2.43
2018-07-09T19:12:09.432Z,2.87
2018-07-09T19:14:43.603Z,2.40
2018-07-09T19:18:27.525Z,2.50
2018-07-09T19:21:34.420Z,2.07
2018-07-09T19:24:02.873Z,2.40
2018-07-09T19:26:31.471Z,2.33
2018-07-09T19:28:59.792Z,2.27
2018-07-09T19:31:28.341Z,2.33
2018-07-09T19:33:56.516Z,2.07
2018-07-09T19:36:24.144Z,2.00
2018-07-09T19:38:51.687Z,2.13
2018-07-09T19:41:19.216Z,1.70
2018-07-09T19:43:47.274Z,2.57
2018-07-09T19:46:15.316Z,2.20
2018-07-09T19:48:43.092Z,2.17
2018-07-09T19:51:10.814Z,2.33
2018-07-09T19:53:38.418Z,2.50
2018-07-09T19:56:05.894Z,2.90
2018-07-09T19:58:33.457Z,2.40
2018-07-09T20:01:01.009Z,2.70
2018-07-09T20:03:28.614Z,2.30
2018-07-09T20:05:56.904Z,2.10
2018-07-09T20:08:28.543Z,2.00
2018-07-09T20:11:01.185Z,2.00
2018-07-09T20:13:35.705Z,1.90
2018-07-09T20:16:08.339Z,2.93
2018-07-09T20:18:35.867Z,2.30
2018-07-09T20:21:03.404Z,2.20
2018-07-09T20:23:30.897Z,2.10
2018-07-09T20:25:58.410Z,2.53
2018-07-09T20:28:25.965Z,2.60
2018-07-09T20:30:53.475Z,1.90
2018-07-09T20:33:20.993Z,2.43
2018-07-09T20:35:48.476Z,2.23
2018-07-09T20:38:15.968Z,1.93
2018-07-09T20:40:43.487Z,1.90
2018-07-09T20:43:11.005Z,2.20
2018-07-09T20:45:38.547Z,1.90
2018-07-09T20:48:06.044Z,1.90
2018-07-09T20:50:33.830Z,2.03
2018-07-09T20:53:01.339Z,1.93
2018-07-09T20:55:28.889Z,1.83
2018-07-09T20:57:56.409Z,1.97
2018-07-09T21:00:23.953Z,2.20
2018-07-09T21:02:51.456Z,1.90
2018-07-09T21:05:18.968Z,1.80
2018-07-09T21:07:46.465Z,1.77
2018-07-09T21:10:13.954Z,2.07
2018-07-09T21:12:47.064Z,2.03
2018-07-09T21:15:14.652Z,1.57
2018-07-09T21:17:42.147Z,1.93
2018-07-09T21:20:09.611Z,2.03
2018-07-09T21:22:37.420Z,1.67
2018-07-09T21:25:04.915Z,1.80
2018-07-09T21:27:32.376Z,2.03
2018-07-09T21:29:59.893Z,2.20
2018-07-09T21:32:27.405Z,2.30
2018-07-09T21:34:54.933Z,2.27
2018-07-09T21:37:22.521Z,2.07
2018-07-09T21:39:49.984Z,2.13
2018-07-09T21:42:17.472Z,2.53
2018-07-09T21:44:44.953Z,2.03
2018-07-09T21:47:12.496Z,2.10
2018-07-09T21:49:40.001Z,2.17
2018-07-09T21:52:07.483Z,2.63
2018-07-09T21:54:35.020Z,2.40
2018-07-09T21:57:02.534Z,2.10
2018-07-09T21:59:30.211Z,2.20
2018-07-09T22:01:57.738Z,2.37
2018-07-09T22:04:25.248Z,2.47
2018-07-09T22:06:52.746Z,2.50
2018-07-09T22:09:20.216Z,2.20
2018-07-09T22:11:47.761Z,2.50
2018-07-09T22:14:15.241Z,2.40
2018-07-09T22:16:42.749Z,2.33
2018-07-09T22:19:10.203Z,2.50
2018-07-09T22:21:37.739Z,2.63
2018-07-09T22:24:05.249Z,2.37
2018-07-09T22:26:32.753Z,2.13
2018-07-09T22:29:00.287Z,2.37
2018-07-09T22:31:28.965Z,2.07
2018-07-09T22:33:57.677Z,2.77
2018-07-09T22:36:26.396Z,2.03
2018-07-09T22:38:55.146Z,2.30
2018-07-09T22:41:23.848Z,2.63
2018-07-09T22:43:57.669Z,2.43
2018-07-09T22:46:26.335Z,2.37
2018-07-09T22:48:55.043Z,2.67
2018-07-09T22:51:23.753Z,2.47
2018-07-09T22:53:52.438Z,2.47
2018-07-09T22:56:21.195Z,2.10
2018-07-09T22:58:50.005Z,2.20
2018-07-09T23:01:19.209Z,2.17
2018-07-09T23:03:47.917Z,2.37
2018-07-09T23:06:16.681Z,2.27
2018-07-09T23:08:45.423Z,2.13
2018-07-09T23:11:25.117Z,2.00
2018-07-09T23:17:09.564Z,2.10
2018-07-09T23:21:50.732Z,2.10
2018-07-09T23:24:18.164Z,2.23
2018-07-09T23:26:45.626Z,2.17
2018-07-09T23:29:13.103Z,2.20
2018-07-09T23:31:40.574Z,1.87
2018-07-09T23:34:08.028Z,2.30
2018-07-09T23:36:35.530Z,2.13
2018-07-09T23:39:03.376Z,2.30
2018-07-09T23:41:30.816Z,2.33
2018-07-09T23:43:58.283Z,2.10
2018-07-09T23:46:25.721Z,2.10
2018-07-09T23:48:53.184Z,2.73
2018-07-09T23:51:20.718Z,2.07
2018-07-09T23:53:48.192Z,2.30
2018-07-09T23:58:29.417Z,2.23
